sensor_id;sensor_type;location;lat;lon;timestamp;pressure;altitude;pressure_sealevel;temperature;humidity
21185;BME280;18176;49.502;11.754;2023-09-30T00:00:07;97598.06;;;20.23;64.91
21185;BME280;18176;49.502;11.754;2023-09-30T00:04:09;97605.31;;;20.13;65.30
21185;BME280;18176;49.502;11.754;2023-09-30T00:08:11;97606.13;;;20.18;65.99
21185;BME280;18176;49.502;11.754;2023-09-30T00:12:12;97617.41;;;20.20;65.72
21185;BME280;18176;49.502;11.754;2023-09-30T00:16:15;97615.78;;;20.19;66.19
21185;BME280;18176;49.502;11.754;2023-09-30T00:20:16;97624.38;;;20.42;65.48
21185;BME280;18176;49.502;11.754;2023-09-30T00:24:16;97598.00;;;20.39;65.56
21185;BME280;18176;49.502;11.754;2023-09-30T00:28:17;97606.06;;;20.34;66.10
21185;BME280;18176;49.502;11.754;2023-09-30T00:32:20;97607.22;;;20.07;67.43
21185;BME280;18176;49.502;11.754;2023-09-30T00:36:20;97616.91;;;20.23;66.95
21185;BME280;18176;49.502;11.754;2023-09-30T00:40:21;97612.03;;;20.31;66.88
21185;BME280;18176;49.502;11.754;2023-09-30T00:44:21;97623.31;;;20.33;67.39
21185;BME280;18176;49.502;11.754;2023-09-30T00:48:24;97630.88;;;20.25;67.39
21185;BME280;18176;49.502;11.754;2023-09-30T00:52:25;97627.09;;;20.26;67.71
21185;BME280;18176;49.502;11.754;2023-09-30T00:56:28;97620.09;;;20.20;67.96
21185;BME280;18176;49.502;11.754;2023-09-30T01:00:29;97608.53;;;20.15;68.57
21185;BME280;18176;49.502;11.754;2023-09-30T01:04:33;97610.72;;;20.23;68.34
21185;BME280;18176;49.502;11.754;2023-09-30T01:08:34;97609.06;;;20.17;68.99
21185;BME280;18176;49.502;11.754;2023-09-30T01:12:34;97610.97;;;20.11;69.26
21185;BME280;18176;49.502;11.754;2023-09-30T01:16:35;97621.25;;;19.89;70.27
21185;BME280;18176;49.502;11.754;2023-09-30T01:20:38;97615.59;;;19.96;70.43
21185;BME280;18176;49.502;11.754;2023-09-30T01:24:42;97626.63;;;19.99;70.11
21185;BME280;18176;49.502;11.754;2023-09-30T01:28:44;97621.75;;;20.16;69.49
21185;BME280;18176;49.502;11.754;2023-09-30T01:32:46;97637.34;;;20.24;69.65
21185;BME280;18176;49.502;11.754;2023-09-30T01:36:46;97641.06;;;20.39;69.16
21185;BME280;18176;49.502;11.754;2023-09-30T01:40:49;97633.56;;;20.25;69.48
21185;BME280;18176;49.502;11.754;2023-09-30T01:44:54;97631.91;;;20.40;69.23
21185;BME280;18176;49.502;11.754;2023-09-30T01:48:55;97630.34;;;20.18;70.23
21185;BME280;18176;49.502;11.754;2023-09-30T01:52:55;97601.06;;;19.97;70.57
21185;BME280;18176;49.502;11.754;2023-09-30T01:56:58;97634.13;;;20.22;70.38
21185;BME280;18176;49.502;11.754;2023-09-30T02:01:03;97625.78;;;20.19;70.46
21185;BME280;18176;49.502;11.754;2023-09-30T02:05:04;97608.81;;;20.13;70.56
21185;BME280;18176;49.502;11.754;2023-09-30T02:09:06;97633.78;;;20.44;69.94
21185;BME280;18176;49.502;11.754;2023-09-30T02:13:10;97623.25;;;20.48;69.75
21185;BME280;18176;49.502;11.754;2023-09-30T02:17:11;97632.44;;;20.47;69.64
21185;BME280;18176;49.502;11.754;2023-09-30T02:21:11;97628.44;;;20.34;70.45
21185;BME280;18176;49.502;11.754;2023-09-30T02:25:12;97631.31;;;20.53;70.00
21185;BME280;18176;49.502;11.754;2023-09-30T02:29:15;97614.50;;;20.76;69.23
21185;BME280;18176;49.502;11.754;2023-09-30T02:33:15;97626.38;;;20.70;68.88
21185;BME280;18176;49.502;11.754;2023-09-30T02:37:15;97605.41;;;20.67;68.21
21185;BME280;18176;49.502;11.754;2023-09-30T02:41:16;97634.03;;;20.48;69.62
21185;BME280;18176;49.502;11.754;2023-09-30T02:45:21;97629.78;;;20.32;70.47
21185;BME280;18176;49.502;11.754;2023-09-30T02:49:21;97603.38;;;20.34;69.81
21185;BME280;18176;49.502;11.754;2023-09-30T02:53:22;97621.06;;;20.55;69.39
21185;BME280;18176;49.502;11.754;2023-09-30T02:57:22;97627.28;;;20.50;69.45
21185;BME280;18176;49.502;11.754;2023-09-30T03:01:27;97627.50;;;20.59;69.24
21185;BME280;18176;49.502;11.754;2023-09-30T03:05:29;97598.72;;;20.49;68.88
21185;BME280;18176;49.502;11.754;2023-09-30T03:09:30;97650.16;;;20.58;69.29
21185;BME280;18176;49.502;11.754;2023-09-30T03:13:32;97663.34;;;20.54;69.72
21185;BME280;18176;49.502;11.754;2023-09-30T03:17:35;97652.66;;;20.34;70.35
21185;BME280;18176;49.502;11.754;2023-09-30T03:21:35;97646.44;;;20.34;70.34
21185;BME280;18176;49.502;11.754;2023-09-30T03:25:35;97637.84;;;20.32;70.28
21185;BME280;18176;49.502;11.754;2023-09-30T03:29:36;97626.81;;;20.33;70.49
21185;BME280;18176;49.502;11.754;2023-09-30T03:33:40;97636.25;;;20.15;71.39
21185;BME280;18176;49.502;11.754;2023-09-30T03:37:41;97641.66;;;20.25;70.90
21185;BME280;18176;49.502;11.754;2023-09-30T03:41:42;97643.75;;;20.34;70.92
21185;BME280;18176;49.502;11.754;2023-09-30T03:45:42;97622.19;;;20.44;70.32
21185;BME280;18176;49.502;11.754;2023-09-30T03:49:45;97642.63;;;20.50;70.22
21185;BME280;18176;49.502;11.754;2023-09-30T03:53:46;97644.81;;;20.38;70.96
21185;BME280;18176;49.502;11.754;2023-09-30T03:57:46;97659.06;;;20.48;70.41
21185;BME280;18176;49.502;11.754;2023-09-30T04:01:49;97660.47;;;20.31;71.17
21185;BME280;18176;49.502;11.754;2023-09-30T04:05:53;97670.16;;;20.26;71.53
21185;BME280;18176;49.502;11.754;2023-09-30T04:09:55;97662.69;;;19.98;72.70
21185;BME280;18176;49.502;11.754;2023-09-30T04:13:59;97651.84;;;20.28;71.19
21185;BME280;18176;49.502;11.754;2023-09-30T04:17:59;97661.00;;;20.17;71.69
21185;BME280;18176;49.502;11.754;2023-09-30T04:22:02;97684.41;;;20.32;71.68
21185;BME280;18176;49.502;11.754;2023-09-30T04:26:03;97689.53;;;20.13;72.72
21185;BME280;18176;49.502;11.754;2023-09-30T04:30:05;97681.47;;;20.13;73.24
21185;BME280;18176;49.502;11.754;2023-09-30T04:34:11;97688.78;;;19.93;75.40
21185;BME280;18176;49.502;11.754;2023-09-30T04:38:14;97668.59;;;19.90;75.84
21185;BME280;18176;49.502;11.754;2023-09-30T04:42:15;97687.41;;;19.80;76.90
21185;BME280;18176;49.502;11.754;2023-09-30T04:46:15;97685.28;;;19.72;77.35
21185;BME280;18176;49.502;11.754;2023-09-30T04:50:18;97690.66;;;19.72;77.44
21185;BME280;18176;49.502;11.754;2023-09-30T04:54:22;97699.28;;;19.54;78.92
21185;BME280;18176;49.502;11.754;2023-09-30T04:58:23;97697.13;;;19.56;78.86
21185;BME280;18176;49.502;11.754;2023-09-30T05:02:24;97698.72;;;19.72;78.08
21185;BME280;18176;49.502;11.754;2023-09-30T05:06:25;97703.56;;;19.70;78.70
21185;BME280;18176;49.502;11.754;2023-09-30T05:10:28;97699.28;;;19.54;79.40
21185;BME280;18176;49.502;11.754;2023-09-30T05:14:29;97696.59;;;19.59;79.03
21185;BME280;18176;49.502;11.754;2023-09-30T05:18:29;97704.66;;;19.74;78.86
21185;BME280;18176;49.502;11.754;2023-09-30T05:22:29;97705.47;;;19.54;79.95
21185;BME280;18176;49.502;11.754;2023-09-30T05:26:32;97714.81;;;19.37;81.28
21185;BME280;18176;49.502;11.754;2023-09-30T05:30:33;97711.56;;;19.35;81.71
21185;BME280;18176;49.502;11.754;2023-09-30T05:34:33;97721.81;;;19.48;81.16
21185;BME280;18176;49.502;11.754;2023-09-30T05:38:34;97719.09;;;19.33;81.72
21185;BME280;18176;49.502;11.754;2023-09-30T05:42:37;97727.16;;;19.28;81.40
21185;BME280;18176;49.502;11.754;2023-09-30T05:46:40;97717.44;;;19.12;81.32
21185;BME280;18176;49.502;11.754;2023-09-30T05:50:40;97729.91;;;18.71;81.34
21185;BME280;18176;49.502;11.754;2023-09-30T05:54:41;97746.25;;;18.59;80.07
21185;BME280;18176;49.502;11.754;2023-09-30T05:58:44;97754.63;;;18.31;80.93
21185;BME280;18176;49.502;11.754;2023-09-30T06:02:44;97773.38;;;18.26;80.78
21185;BME280;18176;49.502;11.754;2023-09-30T06:06:45;97775.38;;;18.04;81.38
21185;BME280;18176;49.502;11.754;2023-09-30T06:10:45;97771.63;;;18.05;81.42
21185;BME280;18176;49.502;11.754;2023-09-30T06:14:48;97780.72;;;18.04;80.32
21185;BME280;18176;49.502;11.754;2023-09-30T06:18:50;97786.31;;;17.97;80.83
21185;BME280;18176;49.502;11.754;2023-09-30T06:22:51;97792.66;;;17.86;81.26
21185;BME280;18176;49.502;11.754;2023-09-30T06:26:51;97777.13;;;17.62;81.99
21185;BME280;18176;49.502;11.754;2023-09-30T06:30:54;97801.41;;;17.77;82.48
21185;BME280;18176;49.502;11.754;2023-09-30T06:34:56;97790.44;;;17.78;82.71
21185;BME280;18176;49.502;11.754;2023-09-30T06:38:57;97804.25;;;17.65;83.58
21185;BME280;18176;49.502;11.754;2023-09-30T06:42:59;97819.53;;;17.96;82.33
21185;BME280;18176;49.502;11.754;2023-09-30T06:47:02;97836.72;;;17.95;81.79
21185;BME280;18176;49.502;11.754;2023-09-30T06:51:03;97850.16;;;17.74;81.03
21185;BME280;18176;49.502;11.754;2023-09-30T06:55:05;97857.19;;;17.80;81.14
21185;BME280;18176;49.502;11.754;2023-09-30T06:59:05;97861.50;;;17.54;82.26
21185;BME280;18176;49.502;11.754;2023-09-30T07:03:08;97859.38;;;17.56;82.59
21185;BME280;18176;49.502;11.754;2023-09-30T07:07:09;97867.56;;;17.71;81.91
21185;BME280;18176;49.502;11.754;2023-09-30T07:11:10;97885.06;;;17.79;81.84
21185;BME280;18176;49.502;11.754;2023-09-30T07:15:10;97884.72;;;17.97;82.01
21185;BME280;18176;49.502;11.754;2023-09-30T07:19:13;97884.16;;;17.95;81.12
21185;BME280;18176;49.502;11.754;2023-09-30T07:23:14;97873.94;;;17.92;80.74
21185;BME280;18176;49.502;11.754;2023-09-30T07:27:19;97887.91;;;17.94;81.64
21185;BME280;18176;49.502;11.754;2023-09-30T07:31:24;97886.84;;;17.95;81.17
21185;BME280;18176;49.502;11.754;2023-09-30T07:35:27;97888.50;;;18.01;81.41
21185;BME280;18176;49.502;11.754;2023-09-30T07:39:29;97896.19;;;18.19;80.46
21185;BME280;18176;49.502;11.754;2023-09-30T07:43:29;97901.16;;;18.32;80.50
21185;BME280;18176;49.502;11.754;2023-09-30T07:47:30;97891.75;;;18.61;80.35
21185;BME280;18176;49.502;11.754;2023-09-30T07:51:34;97894.41;;;18.98;79.79
21185;BME280;18176;49.502;11.754;2023-09-30T07:55:36;97908.28;;;19.27;77.45
21185;BME280;18176;49.502;11.754;2023-09-30T07:59:37;97899.66;;;19.25;76.58
21185;BME280;18176;49.502;11.754;2023-09-30T08:03:37;97913.09;;;19.20;76.07
21185;BME280;18176;49.502;11.754;2023-09-30T08:07:41;97909.63;;;19.34;77.12
21185;BME280;18176;49.502;11.754;2023-09-30T08:11:43;97917.72;;;18.92;76.91
21185;BME280;18176;49.502;11.754;2023-09-30T08:15:43;97911.63;;;18.65;77.53
21185;BME280;18176;49.502;11.754;2023-09-30T08:19:44;97927.00;;;18.16;78.73
21185;BME280;18176;49.502;11.754;2023-09-30T08:23:47;97937.38;;;18.08;79.57
21185;BME280;18176;49.502;11.754;2023-09-30T08:27:48;97943.47;;;18.25;78.83
21185;BME280;18176;49.502;11.754;2023-09-30T08:31:49;97941.75;;;18.14;77.96
21185;BME280;18176;49.502;11.754;2023-09-30T08:35:49;97948.13;;;18.08;77.15
21185;BME280;18176;49.502;11.754;2023-09-30T08:39:52;97940.56;;;18.53;75.53
21185;BME280;18176;49.502;11.754;2023-09-30T08:43:59;97938.13;;;18.88;74.25
21185;BME280;18176;49.502;11.754;2023-09-30T08:48:00;97942.72;;;19.35;72.97
21185;BME280;18176;49.502;11.754;2023-09-30T08:52:03;97927.25;;;19.52;70.58
21185;BME280;18176;49.502;11.754;2023-09-30T08:56:07;97942.47;;;20.08;68.93
21185;BME280;18176;49.502;11.754;2023-09-30T09:00:12;97920.47;;;20.52;65.87
21185;BME280;18176;49.502;11.754;2023-09-30T09:04:13;97911.59;;;20.86;65.24
21185;BME280;18176;49.502;11.754;2023-09-30T09:08:14;97933.56;;;21.54;62.77
21185;BME280;18176;49.502;11.754;2023-09-30T09:12:22;97937.50;;;21.87;60.21
21185;BME280;18176;49.502;11.754;2023-09-30T09:16:23;97931.72;;;22.47;59.79
21185;BME280;18176;49.502;11.754;2023-09-30T09:20:25;97927.28;;;22.66;57.01
21185;BME280;18176;49.502;11.754;2023-09-30T09:24:30;97925.75;;;23.65;57.26
21185;BME280;18176;49.502;11.754;2023-09-30T09:28:37;97920.84;;;24.28;54.92
21185;BME280;18176;49.502;11.754;2023-09-30T09:32:51;97914.78;;;24.87;52.91
21185;BME280;18176;49.502;11.754;2023-09-30T09:36:53;97920.97;;;24.55;52.65
21185;BME280;18176;49.502;11.754;2023-09-30T09:40:59;97909.66;;;23.55;53.81
21185;BME280;18176;49.502;11.754;2023-09-30T09:45:05;97930.44;;;21.96;56.65
21185;BME280;18176;49.502;11.754;2023-09-30T09:49:06;97926.28;;;21.49;58.53
21185;BME280;18176;49.502;11.754;2023-09-30T09:53:08;97925.13;;;22.24;57.27
21185;BME280;18176;49.502;11.754;2023-09-30T09:57:10;97918.88;;;22.68;55.47
21185;BME280;18176;49.502;11.754;2023-09-30T10:01:14;97911.81;;;23.29;50.96
21185;BME280;18176;49.502;11.754;2023-09-30T10:05:19;97906.94;;;23.02;52.33
21185;BME280;18176;49.502;11.754;2023-09-30T10:09:20;97911.38;;;23.46;52.40
21185;BME280;18176;49.502;11.754;2023-09-30T10:13:51;97911.69;;;24.05;50.58
21185;BME280;18176;49.502;11.754;2023-09-30T10:18:03;97926.53;;;23.89;49.62
21185;BME280;18176;49.502;11.754;2023-09-30T10:22:22;97920.78;;;23.72;49.38
21185;BME280;18176;49.502;11.754;2023-09-30T10:26:23;97929.22;;;23.89;48.48
21185;BME280;18176;49.502;11.754;2023-09-30T10:30:23;97928.94;;;23.91;48.08
21185;BME280;18176;49.502;11.754;2023-09-30T10:34:27;97931.13;;;24.12;48.43
21185;BME280;18176;49.502;11.754;2023-09-30T10:38:40;97928.63;;;23.92;48.78
21185;BME280;18176;49.502;11.754;2023-09-30T10:42:48;97942.78;;;23.89;48.73
21185;BME280;18176;49.502;11.754;2023-09-30T10:46:53;97937.81;;;23.96;48.41
21185;BME280;18176;49.502;11.754;2023-09-30T10:50:57;97921.38;;;23.69;47.97
21185;BME280;18176;49.502;11.754;2023-09-30T10:55:03;97911.47;;;24.20;47.17
21185;BME280;18176;49.502;11.754;2023-09-30T10:59:05;97937.47;;;24.40;46.61
21185;BME280;18176;49.502;11.754;2023-09-30T11:03:06;97925.75;;;24.63;46.51
21185;BME280;18176;49.502;11.754;2023-09-30T11:07:10;97929.06;;;24.92;45.48
21185;BME280;18176;49.502;11.754;2023-09-30T11:11:10;97916.69;;;23.74;47.43
21185;BME280;18176;49.502;11.754;2023-09-30T11:15:11;97907.69;;;23.79;47.15
21185;BME280;18176;49.502;11.754;2023-09-30T11:19:12;97914.53;;;23.95;46.79
21185;BME280;18176;49.502;11.754;2023-09-30T11:23:16;97894.06;;;24.77;46.01
21185;BME280;18176;49.502;11.754;2023-09-30T11:27:22;97903.88;;;25.19;44.98
21185;BME280;18176;49.502;11.754;2023-09-30T11:31:28;97913.44;;;24.52;46.32
21185;BME280;18176;49.502;11.754;2023-09-30T11:35:31;97881.59;;;23.88;47.60
21185;BME280;18176;49.502;11.754;2023-09-30T11:39:34;97912.59;;;23.77;48.43
21185;BME280;18176;49.502;11.754;2023-09-30T11:43:36;97906.31;;;23.11;49.74
21185;BME280;18176;49.502;11.754;2023-09-30T11:47:42;97897.78;;;23.51;49.15
21185;BME280;18176;49.502;11.754;2023-09-30T11:51:43;97890.28;;;24.04;49.80
21185;BME280;18176;49.502;11.754;2023-09-30T11:55:47;97891.63;;;24.25;48.14
21185;BME280;18176;49.502;11.754;2023-09-30T11:59:48;97893.84;;;24.23;49.44
21185;BME280;18176;49.502;11.754;2023-09-30T12:03:48;97895.72;;;24.41;48.67
21185;BME280;18176;49.502;11.754;2023-09-30T12:07:52;97899.41;;;24.64;48.42
21185;BME280;18176;49.502;11.754;2023-09-30T12:11:55;97883.00;;;24.74;48.07
21185;BME280;18176;49.502;11.754;2023-09-30T12:15:56;97880.28;;;25.06;48.33
21185;BME280;18176;49.502;11.754;2023-09-30T12:19:57;97882.47;;;25.86;47.14
21185;BME280;18176;49.502;11.754;2023-09-30T12:23:58;97886.25;;;26.12;46.60
21185;BME280;18176;49.502;11.754;2023-09-30T12:28:01;97871.66;;;26.43;43.28
21185;BME280;18176;49.502;11.754;2023-09-30T12:32:03;97888.03;;;26.52;43.24
21185;BME280;18176;49.502;11.754;2023-09-30T12:36:04;97881.97;;;26.55;43.08
21185;BME280;18176;49.502;11.754;2023-09-30T12:40:06;97864.28;;;26.66;42.57
21185;BME280;18176;49.502;11.754;2023-09-30T12:44:11;97855.78;;;26.81;42.52
21185;BME280;18176;49.502;11.754;2023-09-30T12:48:12;97859.47;;;27.64;41.73
21185;BME280;18176;49.502;11.754;2023-09-30T12:52:12;97851.38;;;28.32;39.01
21185;BME280;18176;49.502;11.754;2023-09-30T12:56:13;97863.13;;;29.05;37.02
21185;BME280;18176;49.502;11.754;2023-09-30T13:00:16;97852.47;;;28.48;38.75
21185;BME280;18176;49.502;11.754;2023-09-30T13:04:19;97872.53;;;28.52;40.01
21185;BME280;18176;49.502;11.754;2023-09-30T13:08:21;97857.47;;;28.12;40.72
21185;BME280;18176;49.502;11.754;2023-09-30T13:12:21;97838.44;;;27.39;41.31
21185;BME280;18176;49.502;11.754;2023-09-30T13:16:24;97861.97;;;27.43;41.98
21185;BME280;18176;49.502;11.754;2023-09-30T13:20:24;97856.06;;;27.10;42.31
21185;BME280;18176;49.502;11.754;2023-09-30T13:24:25;97848.34;;;27.04;42.31
21185;BME280;18176;49.502;11.754;2023-09-30T13:28:27;97868.34;;;26.99;41.47
21185;BME280;18176;49.502;11.754;2023-09-30T13:32:30;97846.00;;;26.14;43.11
21185;BME280;18176;49.502;11.754;2023-09-30T13:36:33;97853.13;;;25.88;43.47
21185;BME280;18176;49.502;11.754;2023-09-30T13:40:33;97832.59;;;25.82;42.98
21185;BME280;18176;49.502;11.754;2023-09-30T13:44:37;97841.25;;;26.41;43.04
21185;BME280;18176;49.502;11.754;2023-09-30T13:48:40;97840.72;;;26.75;42.29
21185;BME280;18176;49.502;11.754;2023-09-30T13:52:40;97835.97;;;26.89;41.93
21185;BME280;18176;49.502;11.754;2023-09-30T13:56:40;97845.94;;;26.72;41.34
21185;BME280;18176;49.502;11.754;2023-09-30T14:00:46;97824.78;;;26.38;40.38
21185;BME280;18176;49.502;11.754;2023-09-30T14:04:52;97829.78;;;25.87;40.97
21185;BME280;18176;49.502;11.754;2023-09-30T14:08:53;97829.56;;;25.97;41.18
21185;BME280;18176;49.502;11.754;2023-09-30T14:12:54;97835.44;;;26.34;40.50
21185;BME280;18176;49.502;11.754;2023-09-30T14:16:55;97844.16;;;26.45;39.57
21185;BME280;18176;49.502;11.754;2023-09-30T14:20:58;97836.00;;;25.87;41.19
21185;BME280;18176;49.502;11.754;2023-09-30T14:24:58;97807.81;;;25.97;41.16
21185;BME280;18176;49.502;11.754;2023-09-30T14:28:59;97808.97;;;26.04;40.66
21185;BME280;18176;49.502;11.754;2023-09-30T14:32:59;97803.69;;;25.63;41.75
21185;BME280;18176;49.502;11.754;2023-09-30T14:37:03;97828.53;;;25.93;41.31
21185;BME280;18176;49.502;11.754;2023-09-30T14:41:06;97838.47;;;26.77;39.60
21185;BME280;18176;49.502;11.754;2023-09-30T14:45:08;97821.22;;;25.57;41.32
21185;BME280;18176;49.502;11.754;2023-09-30T14:49:09;97837.88;;;25.10;42.98
21185;BME280;18176;49.502;11.754;2023-09-30T14:53:12;97842.63;;;25.18;42.48
21185;BME280;18176;49.502;11.754;2023-09-30T14:57:12;97844.94;;;24.33;44.20
21185;BME280;18176;49.502;11.754;2023-09-30T15:01:13;97840.69;;;24.27;43.89
21185;BME280;18176;49.502;11.754;2023-09-30T15:05:13;97846.31;;;23.56;45.42
21185;BME280;18176;49.502;11.754;2023-09-30T15:09:16;97844.88;;;23.82;45.34
21185;BME280;18176;49.502;11.754;2023-09-30T15:13:16;97843.84;;;23.78;44.39
21185;BME280;18176;49.502;11.754;2023-09-30T15:17:17;97842.50;;;24.31;44.63
21185;BME280;18176;49.502;11.754;2023-09-30T15:21:17;97830.22;;;24.98;42.89
21185;BME280;18176;49.502;11.754;2023-09-30T15:25:20;97837.69;;;25.20;41.76
21185;BME280;18176;49.502;11.754;2023-09-30T15:29:21;97838.13;;;24.68;41.96
21185;BME280;18176;49.502;11.754;2023-09-30T15:33:21;97830.88;;;24.31;42.72
21185;BME280;18176;49.502;11.754;2023-09-30T15:37:21;97820.13;;;23.70;44.34
21185;BME280;18176;49.502;11.754;2023-09-30T15:41:25;97818.00;;;23.25;45.06
21185;BME280;18176;49.502;11.754;2023-09-30T15:45:26;97827.66;;;23.07;45.34
21185;BME280;18176;49.502;11.754;2023-09-30T15:49:27;97839.88;;;23.04;45.71
21185;BME280;18176;49.502;11.754;2023-09-30T15:53:27;97818.84;;;23.01;46.24
21185;BME280;18176;49.502;11.754;2023-09-30T15:57:33;97833.78;;;23.18;45.53
21185;BME280;18176;49.502;11.754;2023-09-30T16:01:34;97835.25;;;23.29;45.91
21185;BME280;18176;49.502;11.754;2023-09-30T16:05:37;97821.78;;;23.24;45.95
21185;BME280;18176;49.502;11.754;2023-09-30T16:09:38;97841.97;;;23.36;45.88
21185;BME280;18176;49.502;11.754;2023-09-30T16:13:40;97829.91;;;22.76;46.65
21185;BME280;18176;49.502;11.754;2023-09-30T16:17:41;97840.78;;;22.71;47.35
21185;BME280;18176;49.502;11.754;2023-09-30T16:21:41;97833.91;;;22.21;48.50
21185;BME280;18176;49.502;11.754;2023-09-30T16:25:42;97837.16;;;21.75;49.29
21185;BME280;18176;49.502;11.754;2023-09-30T16:29:45;97833.59;;;21.35;51.38
21185;BME280;18176;49.502;11.754;2023-09-30T16:33:45;97842.84;;;21.14;52.21
21185;BME280;18176;49.502;11.754;2023-09-30T16:37:46;97824.88;;;20.64;53.26
21185;BME280;18176;49.502;11.754;2023-09-30T16:41:46;97833.25;;;20.38;54.66
21185;BME280;18176;49.502;11.754;2023-09-30T16:45:49;97841.34;;;20.22;55.37
21185;BME280;18176;49.502;11.754;2023-09-30T16:49:50;97837.53;;;19.88;56.85
21185;BME280;18176;49.502;11.754;2023-09-30T16:53:50;97854.16;;;19.80;57.50
21185;BME280;18176;49.502;11.754;2023-09-30T16:57:50;97865.72;;;19.66;58.04
21185;BME280;18176;49.502;11.754;2023-09-30T17:01:53;97864.97;;;19.23;60.04
21185;BME280;18176;49.502;11.754;2023-09-30T17:05:54;97878.00;;;18.95;61.53
21185;BME280;18176;49.502;11.754;2023-09-30T17:09:54;97873.03;;;18.71;62.75
21185;BME280;18176;49.502;11.754;2023-09-30T17:13:54;97866.88;;;18.39;64.03
21185;BME280;18176;49.502;11.754;2023-09-30T17:17:59;97846.63;;;17.95;64.91
21185;BME280;18176;49.502;11.754;2023-09-30T17:22:01;97843.19;;;17.73;66.01
21185;BME280;18176;49.502;11.754;2023-09-30T17:26:02;97850.56;;;17.61;67.21
21185;BME280;18176;49.502;11.754;2023-09-30T17:30:04;97851.94;;;17.41;68.38
21185;BME280;18176;49.502;11.754;2023-09-30T17:34:07;97863.13;;;17.38;68.83
21185;BME280;18176;49.502;11.754;2023-09-30T17:38:08;97877.81;;;17.52;68.86
21185;BME280;18176;49.502;11.754;2023-09-30T17:42:08;97844.25;;;17.07;69.13
21185;BME280;18176;49.502;11.754;2023-09-30T17:46:09;97866.88;;;17.16;69.65
21185;BME280;18176;49.502;11.754;2023-09-30T17:50:13;97889.88;;;17.12;70.57
21185;BME280;18176;49.502;11.754;2023-09-30T17:54:13;97891.00;;;16.99;71.27
21185;BME280;18176;49.502;11.754;2023-09-30T17:58:14;97895.78;;;16.92;71.30
21185;BME280;18176;49.502;11.754;2023-09-30T18:02:14;97885.38;;;16.79;72.12
21185;BME280;18176;49.502;11.754;2023-09-30T18:06:17;97889.78;;;16.68;72.61
21185;BME280;18176;49.502;11.754;2023-09-30T18:10:18;97894.00;;;16.48;73.12
21185;BME280;18176;49.502;11.754;2023-09-30T18:14:19;97858.81;;;16.23;73.50
21185;BME280;18176;49.502;11.754;2023-09-30T18:18:19;97896.31;;;16.44;73.29
21185;BME280;18176;49.502;11.754;2023-09-30T18:22:22;97892.50;;;16.24;74.27
21185;BME280;18176;49.502;11.754;2023-09-30T18:26:23;97901.97;;;16.14;74.74
21185;BME280;18176;49.502;11.754;2023-09-30T18:30:23;97895.16;;;15.90;75.44
21185;BME280;18176;49.502;11.754;2023-09-30T18:34:24;97889.03;;;15.78;76.48
21185;BME280;18176;49.502;11.754;2023-09-30T18:38:27;97889.34;;;15.65;77.28
21185;BME280;18176;49.502;11.754;2023-09-30T18:42:28;97898.84;;;15.61;77.66
21185;BME280;18176;49.502;11.754;2023-09-30T18:46:29;97906.03;;;15.72;77.69
21185;BME280;18176;49.502;11.754;2023-09-30T18:50:30;97882.53;;;15.46;78.55
21185;BME280;18176;49.502;11.754;2023-09-30T18:54:34;97898.78;;;15.56;78.99
21185;BME280;18176;49.502;11.754;2023-09-30T18:58:35;97915.38;;;15.58;79.32
21185;BME280;18176;49.502;11.754;2023-09-30T19:02:35;97896.22;;;15.50;78.57
21185;BME280;18176;49.502;11.754;2023-09-30T19:06:35;97906.78;;;15.56;77.79
21185;BME280;18176;49.502;11.754;2023-09-30T19:10:38;97914.69;;;15.51;78.44
21185;BME280;18176;49.502;11.754;2023-09-30T19:14:39;97909.38;;;15.39;78.54
21185;BME280;18176;49.502;11.754;2023-09-30T19:18:39;97915.63;;;15.45;78.30
21185;BME280;18176;49.502;11.754;2023-09-30T19:22:39;97912.16;;;15.44;77.92
21185;BME280;18176;49.502;11.754;2023-09-30T19:26:42;97913.44;;;15.30;78.33
21185;BME280;18176;49.502;11.754;2023-09-30T19:30:43;97912.16;;;15.33;78.48
21185;BME280;18176;49.502;11.754;2023-09-30T19:34:47;97910.53;;;15.32;78.29
21185;BME280;18176;49.502;11.754;2023-09-30T19:38:47;97920.06;;;15.28;78.56
21185;BME280;18176;49.502;11.754;2023-09-30T19:42:50;97902.81;;;15.07;78.71
21185;BME280;18176;49.502;11.754;2023-09-30T19:46:50;97914.50;;;15.18;78.56
21185;BME280;18176;49.502;11.754;2023-09-30T19:50:51;97923.34;;;15.18;78.42
21185;BME280;18176;49.502;11.754;2023-09-30T19:54:52;97906.06;;;15.09;78.34
21185;BME280;18176;49.502;11.754;2023-09-30T19:58:55;97899.69;;;14.99;78.86
21185;BME280;18176;49.502;11.754;2023-09-30T20:02:56;97913.94;;;15.04;78.42
21185;BME280;18176;49.502;11.754;2023-09-30T20:06:57;97911.28;;;14.93;78.17
21185;BME280;18176;49.502;11.754;2023-09-30T20:10:58;97914.06;;;14.74;78.74
21185;BME280;18176;49.502;11.754;2023-09-30T20:15:01;97913.63;;;14.77;78.73
21185;BME280;18176;49.502;11.754;2023-09-30T20:19:02;97906.06;;;14.74;78.89
21185;BME280;18176;49.502;11.754;2023-09-30T20:23:04;97910.13;;;14.65;79.05
21185;BME280;18176;49.502;11.754;2023-09-30T20:27:04;97898.31;;;14.50;78.68
21185;BME280;18176;49.502;11.754;2023-09-30T20:31:09;97890.28;;;14.38;79.53
21185;BME280;18176;49.502;11.754;2023-09-30T20:35:11;97904.56;;;14.55;79.26
21185;BME280;18176;49.502;11.754;2023-09-30T20:39:13;97923.13;;;14.50;79.47
21185;BME280;18176;49.502;11.754;2023-09-30T20:43:14;97888.06;;;14.35;78.88
21185;BME280;18176;49.502;11.754;2023-09-30T20:47:17;97860.91;;;14.15;78.70
21185;BME280;18176;49.502;11.754;2023-09-30T20:51:18;97898.56;;;14.19;79.19
21185;BME280;18176;49.502;11.754;2023-09-30T20:55:18;97920.19;;;14.40;78.85
21185;BME280;18176;49.502;11.754;2023-09-30T20:59:19;97917.72;;;14.27;78.48
21185;BME280;18176;49.502;11.754;2023-09-30T21:03:22;97935.25;;;14.35;78.96